createdAt,value
2023-04-03T00:02:12.323Z,99634.81
2023-04-03T00:04:43.233Z,99635.66
2023-04-03T00:07:12.403Z,99632.34
2023-04-03T00:09:41.715Z,99636.41
2023-04-03T00:12:12.245Z,99626.53
2023-04-03T00:14:44.489Z,99620.44
2023-04-03T00:17:18.004Z,99617.75
2023-04-03T00:19:48.309Z,99614.00
2023-04-03T00:22:16.946Z,99610.34
2023-04-03T00:24:50.170Z,99614.72
2023-04-03T00:27:20.910Z,99611.81
2023-04-03T00:29:50.764Z,99593.19
2023-04-03T00:32:19.753Z,99600.84
2023-04-03T00:34:49.753Z,99587.47
2023-04-03T00:37:19.082Z,99590.97
2023-04-03T00:39:49.121Z,99588.78
2023-04-03T00:42:18.706Z,99593.28
2023-04-03T00:44:49.270Z,99597.19
2023-04-03T00:47:19.818Z,99600.47
2023-04-03T00:49:48.560Z,99594.88
2023-04-03T00:52:37.531Z,99598.03
2023-04-03T00:55:09.922Z,99595.72
2023-04-03T00:57:39.598Z,99596.63
2023-04-03T01:00:10.970Z,99589.53
2023-04-03T01:02:57.967Z,99591.50
2023-04-03T01:05:27.202Z,99586.75
2023-04-03T01:07:55.990Z,99585.25
2023-04-03T01:10:24.448Z,99589.06
2023-04-03T01:12:53.071Z,99582.47
2023-04-03T01:15:27.658Z,99578.44
2023-04-03T01:17:57.958Z,99577.34
2023-04-03T01:20:44.052Z,99571.75
2023-04-03T01:23:15.381Z,99575.03
2023-04-03T01:25:54.907Z,99573.22
2023-04-03T01:28:27.462Z,99572.22
2023-04-03T01:31:14.130Z,99568.69
2023-04-03T01:33:45.506Z,99569.78
2023-04-03T01:36:20.362Z,99567.09
2023-04-03T01:38:51.354Z,99549.72
2023-04-03T01:41:22.903Z,99556.28
2023-04-03T01:43:51.154Z,99555.06
2023-04-03T01:46:19.724Z,99553.59
2023-04-03T01:48:51.277Z,99552.09
2023-04-03T01:51:20.157Z,99548.09
2023-04-03T01:53:48.491Z,99544.66
2023-04-03T01:56:19.366Z,99551.00
2023-04-03T01:58:48.426Z,99559.91
2023-04-03T02:01:21.466Z,99550.03
2023-04-03T02:03:51.179Z,99549.03
2023-04-03T02:06:19.365Z,99558.22
2023-04-03T02:08:49.320Z,99546.56
2023-04-03T02:11:17.852Z,99543.88
2023-04-03T02:13:46.190Z,99536.06
2023-04-03T02:16:15.044Z,99533.25
2023-04-03T02:18:43.234Z,99537.25
2023-04-03T02:21:17.002Z,99533.72
2023-04-03T02:23:46.114Z,99529.34
2023-04-03T02:26:16.515Z,99531.91
2023-04-03T02:28:47.518Z,99518.88
2023-04-03T02:31:19.399Z,99517.19
2023-04-03T02:33:47.619Z,99515.34
2023-04-03T02:36:16.242Z,99517.78
2023-04-03T02:38:44.915Z,99515.81
2023-04-03T02:41:18.024Z,99513.28
2023-04-03T02:43:51.964Z,99511.91
2023-04-03T02:46:20.240Z,99510.97
2023-04-03T02:48:48.419Z,99509.59
2023-04-03T02:51:19.513Z,99510.97
2023-04-03T02:53:47.679Z,99507.75
2023-04-03T02:56:16.166Z,99520.75
2023-04-03T02:58:47.579Z,99510.41
2023-04-03T03:01:16.866Z,99514.38
2023-04-03T03:03:45.969Z,99509.88
2023-04-03T03:06:18.096Z,99515.09
2023-04-03T03:08:47.562Z,99502.56
2023-04-03T03:11:16.081Z,99506.94
2023-04-03T03:13:44.396Z,99507.19
2023-04-03T03:16:12.837Z,99504.97
2023-04-03T03:18:41.873Z,99501.69
2023-04-03T03:21:14.118Z,99495.09
2023-04-03T03:23:43.255Z,99502.28
2023-04-03T03:26:12.623Z,99491.69
2023-04-03T03:28:42.358Z,99492.41
2023-04-03T03:31:15.616Z,99493.13
2023-04-03T03:33:43.769Z,99497.91
2023-04-03T03:36:12.282Z,99496.53
2023-04-03T03:38:40.634Z,99497.75
2023-04-03T03:41:08.762Z,99493.00
2023-04-03T03:43:42.907Z,99494.00
2023-04-03T03:46:11.236Z,99490.22
2023-04-03T03:48:39.182Z,99494.06
2023-04-03T03:51:07.611Z,99486.69
2023-04-03T03:53:39.961Z,99493.59
2023-04-03T03:56:11.827Z,99490.47
2023-04-03T03:58:59.874Z,99489.72
2023-04-03T04:01:27.963Z,99488.28
2023-04-03T04:03:58.136Z,99492.28
2023-04-03T04:06:27.632Z,99489.72
2023-04-03T04:08:57.307Z,99485.09
2023-04-03T04:11:26.303Z,99486.09
2023-04-03T04:13:54.535Z,99488.78
2023-04-03T04:16:25.469Z,99487.03
2023-04-03T04:18:53.590Z,99472.41
2023-04-03T04:21:25.484Z,99483.72
2023-04-03T04:23:59.959Z,99482.16
2023-04-03T04:26:29.716Z,99481.69
2023-04-03T04:28:58.184Z,99487.53
2023-04-03T04:31:27.035Z,99484.31
2023-04-03T04:33:55.842Z,99479.69
2023-04-03T04:36:26.737Z,99476.88
2023-04-03T04:39:06.695Z,99473.34
2023-04-03T04:41:35.790Z,99472.19
2023-04-03T04:44:04.118Z,99466.59
2023-04-03T04:46:33.542Z,99468.69
2023-04-03T04:49:02.244Z,99473.63
2023-04-03T04:51:40.996Z,99470.56
2023-04-03T04:54:18.672Z,99479.94
2023-04-03T04:56:51.975Z,99469.59
2023-04-03T04:59:21.471Z,99466.78
2023-04-03T05:01:50.039Z,99473.59
2023-04-03T05:04:20.360Z,99462.16
2023-04-03T05:06:49.051Z,99464.16
2023-04-03T05:09:17.554Z,99459.69
2023-04-03T05:11:48.469Z,99456.25
2023-04-03T05:14:16.900Z,99458.69
2023-04-03T05:16:45.055Z,99462.81
2023-04-03T05:19:14.145Z,99466.06
2023-04-03T05:21:44.206Z,99461.88
2023-04-03T05:24:12.671Z,99458.22
2023-04-03T05:26:41.123Z,99455.84
2023-04-03T05:29:09.470Z,99454.56
2023-04-03T05:31:38.211Z,99460.50
2023-04-03T05:34:08.261Z,99455.84
2023-04-03T05:36:36.964Z,99460.09
2023-04-03T05:39:05.377Z,99460.84
2023-04-03T05:41:34.003Z,99459.47
2023-04-03T05:44:03.512Z,99464.00
2023-04-03T05:46:31.778Z,99465.53
2023-04-03T05:49:02.089Z,99458.53
2023-04-03T05:51:36.963Z,99460.09
2023-04-03T05:54:28.837Z,99460.34
2023-04-03T05:56:57.466Z,99462.63
2023-04-03T05:59:26.603Z,99470.84
2023-04-03T06:01:59.227Z,99463.66
2023-04-03T06:04:27.740Z,99456.91
2023-04-03T06:06:58.866Z,99469.50
2023-04-03T06:09:31.341Z,99461.72
2023-04-03T06:12:02.026Z,99468.53
2023-04-03T06:14:30.564Z,99464.56
2023-04-03T06:17:01.951Z,99467.25
2023-04-03T06:19:30.940Z,99470.22
2023-04-03T06:21:59.155Z,99459.63
2023-04-03T06:24:27.754Z,99465.84
2023-04-03T06:26:56.294Z,99468.16
2023-04-03T06:29:25.469Z,99466.59
2023-04-03T06:31:56.342Z,99469.41
2023-04-03T06:34:25.026Z,99468.94
2023-04-03T06:36:54.036Z,99466.84
2023-04-03T06:42:13.170Z,99469.16
2023-04-03T06:44:41.635Z,99473.66
2023-04-03T06:47:14.067Z,99477.91
2023-04-03T06:49:44.062Z,99474.13
2023-04-03T06:52:13.716Z,99480.19
2023-04-03T06:54:44.711Z,99475.72
2023-04-03T06:57:16.650Z,99468.63
2023-04-03T06:59:44.919Z,99477.69
2023-04-03T07:02:15.517Z,99477.84
2023-04-03T07:04:43.901Z,99466.09
2023-04-03T07:07:12.632Z,99482.91
2023-04-03T07:09:41.571Z,99477.41
2023-04-03T07:12:16.371Z,99470.34
2023-04-03T07:14:45.174Z,99473.19
2023-04-03T07:17:13.596Z,99468.81
2023-04-03T07:19:45.709Z,99467.13
2023-04-03T07:22:14.376Z,99469.25
2023-04-03T07:24:42.763Z,99470.78
2023-04-03T07:39:11.089Z,99477.97
2023-04-03T07:41:41.687Z,99476.50
2023-04-03T07:44:13.338Z,99472.81
2023-04-03T07:46:42.216Z,99477.50
2023-04-03T07:49:10.750Z,99486.16
2023-04-03T07:51:43.194Z,99485.28
2023-04-03T07:54:12.444Z,99481.19
2023-04-03T07:56:40.926Z,99493.75
2023-04-03T07:59:10.016Z,99492.75
2023-04-03T08:01:40.427Z,99491.00
2023-04-03T08:04:09.436Z,99491.84
2023-04-03T08:06:47.358Z,99494.53
2023-04-03T08:09:20.548Z,99491.66
2023-04-03T08:11:54.759Z,99486.56
2023-04-03T08:14:26.503Z,99482.91
2023-04-03T08:17:05.774Z,99494.97
2023-04-03T08:19:33.880Z,99494.59
2023-04-03T08:22:04.335Z,99488.28
2023-04-03T08:24:33.662Z,99499.94
2023-04-03T08:27:02.277Z,99498.38
2023-04-03T08:29:31.995Z,99505.78
2023-04-03T08:32:02.327Z,99506.16
2023-04-03T08:34:30.906Z,99507.06
2023-04-03T08:37:03.518Z,99509.97
2023-04-03T08:39:33.043Z,99508.56
2023-04-03T08:42:08.576Z,99512.03
2023-04-03T08:45:32.684Z,99508.25
2023-04-03T08:48:53.536Z,99508.00
2023-04-03T08:51:23.603Z,99516.19
2023-04-03T08:53:59.915Z,99511.47
2023-04-03T08:56:28.113Z,99522.72
2023-04-03T08:59:07.137Z,99516.03
2023-04-03T09:01:42.382Z,99516.03
2023-04-03T09:04:19.876Z,99524.84
2023-04-03T09:06:57.155Z,99530.97
2023-04-03T09:09:34.276Z,99536.09
2023-04-03T09:12:23.441Z,99540.25
2023-04-03T09:14:57.570Z,99532.84
2023-04-03T09:17:35.705Z,99531.09
2023-04-03T09:20:14.600Z,99542.56
2023-04-03T09:22:49.684Z,99545.50
2023-04-03T09:25:24.920Z,99551.50
2023-04-03T09:27:53.606Z,99551.72
2023-04-03T09:30:32.744Z,99552.63
2023-04-03T09:33:01.484Z,99567.84
2023-04-03T09:35:44.763Z,99551.94
2023-04-03T09:38:19.301Z,99559.50
2023-04-03T09:40:52.210Z,99562.75
2023-04-03T09:43:23.754Z,99562.88
2023-04-03T09:45:53.298Z,99571.28
2023-04-03T09:48:26.835Z,99564.13
2023-04-03T09:51:06.927Z,99575.47
2023-04-03T09:53:41.637Z,99580.06
2023-04-03T09:56:17.497Z,99572.06
2023-04-03T09:58:53.030Z,99580.97
2023-04-03T10:01:34.411Z,99582.66
2023-04-03T10:04:24.127Z,99590.72
2023-04-03T10:06:56.249Z,99587.50
2023-04-03T10:09:32.915Z,99596.84
2023-04-03T10:12:11.793Z,99601.31
2023-04-03T10:14:46.170Z,99608.88
2023-04-03T10:17:43.828Z,99607.41
2023-04-03T10:20:28.771Z,99614.00
2023-04-03T10:23:24.686Z,99618.66
2023-04-03T10:26:05.839Z,99614.25
2023-04-03T10:29:14.604Z,99622.44
2023-04-03T10:31:58.951Z,99627.38
2023-04-03T10:34:36.881Z,99625.16
2023-04-03T10:37:30.343Z,99635.97
2023-04-03T10:40:12.505Z,99635.41
2023-04-03T10:43:01.558Z,99637.59
2023-04-03T10:46:05.013Z,99643.72
2023-04-03T10:48:46.000Z,99645.81
2023-04-03T10:51:40.742Z,99658.66
2023-04-03T10:54:14.404Z,99658.41
2023-04-03T10:57:08.582Z,99656.69
2023-04-03T11:00:05.540Z,99659.75
2023-04-03T11:03:00.308Z,99663.56
2023-04-03T11:05:33.869Z,99666.94
2023-04-03T11:08:36.518Z,99669.09
2023-04-03T11:11:22.909Z,99669.75
2023-04-03T11:14:10.287Z,99678.19
2023-04-03T11:16:54.269Z,99673.78
2023-04-03T11:19:51.367Z,99667.78
2023-04-03T11:22:28.804Z,99678.03
2023-04-03T11:25:14.107Z,99671.50
2023-04-03T11:27:45.012Z,99674.72
2023-04-03T11:30:22.496Z,99678.91
2023-04-03T11:33:07.852Z,99687.47
2023-04-03T11:35:39.708Z,99686.47
2023-04-03T11:38:10.501Z,99684.69
2023-04-03T11:40:41.706Z,99693.13
2023-04-03T11:43:31.848Z,99702.69
2023-04-03T11:46:05.281Z,99698.88
2023-04-03T11:48:37.763Z,99703.34
2023-04-03T11:51:13.959Z,99708.19
2023-04-03T11:53:42.857Z,99713.72
2023-04-03T11:56:25.132Z,99708.03
2023-04-03T11:59:11.945Z,99714.50
2023-04-03T12:01:46.524Z,99722.34
2023-04-03T12:04:18.073Z,99718.72
2023-04-03T12:06:46.796Z,99732.19
2023-04-03T12:09:33.773Z,99731.53
2023-04-03T12:12:22.690Z,99742.31
2023-04-03T12:14:53.567Z,99744.53
2023-04-03T12:17:29.849Z,99746.34
2023-04-03T12:19:57.971Z,99749.06
2023-04-03T12:22:26.129Z,99750.22
2023-04-03T12:24:54.504Z,99759.44
2023-04-03T12:27:38.526Z,99759.47
2023-04-03T12:30:28.043Z,99763.72
2023-04-03T12:33:19.455Z,99750.22
2023-04-03T12:36:09.423Z,99764.25
2023-04-03T12:39:21.511Z,99762.34
2023-04-03T12:42:21.625Z,99764.56
2023-04-03T12:45:16.706Z,99768.78
2023-04-03T12:47:46.731Z,99772.16
2023-04-03T12:50:34.090Z,99771.59
2023-04-03T12:53:06.653Z,99772.09
2023-04-03T12:55:34.656Z,99778.59
2023-04-03T12:58:29.508Z,99769.91
2023-04-03T13:01:16.187Z,99783.38
2023-04-03T13:03:50.226Z,99776.56
2023-04-03T13:06:32.454Z,99781.28
2023-04-03T13:09:02.929Z,99789.97
2023-04-03T13:11:39.569Z,99796.00
2023-04-03T13:14:17.577Z,99796.84
2023-04-03T13:17:00.286Z,99795.03
2023-04-03T13:19:30.094Z,99799.13
2023-04-03T13:22:22.915Z,99806.44
2023-04-03T13:24:52.553Z,99810.13
2023-04-03T13:27:22.897Z,99820.63
2023-04-03T13:29:53.850Z,99822.75
2023-04-03T13:32:39.995Z,99825.47
2023-04-03T13:35:37.380Z,99829.34
2023-04-03T13:38:26.033Z,99836.75
2023-04-03T13:41:13.911Z,99829.56
2023-04-03T13:43:43.163Z,99842.47
2023-04-03T13:46:24.030Z,99850.13
2023-04-03T13:48:55.002Z,99846.31
2023-04-03T13:51:30.948Z,99854.50
2023-04-03T13:54:26.797Z,99861.38
2023-04-03T13:56:58.403Z,99863.66
2023-04-03T13:59:37.212Z,99862.50
2023-04-03T14:02:06.491Z,99863.38
2023-04-03T14:04:38.429Z,99869.31
2023-04-03T14:07:07.982Z,99870.31
2023-04-03T14:09:40.072Z,99876.16
2023-04-03T14:12:30.014Z,99878.00
2023-04-03T14:15:27.945Z,99880.44
2023-04-03T14:17:57.037Z,99878.31
2023-04-03T14:20:28.117Z,99878.03
2023-04-03T14:22:57.640Z,99879.72
2023-04-03T14:25:26.972Z,99893.34
2023-04-03T14:27:57.708Z,99886.38
2023-04-03T14:30:30.381Z,99890.50
2023-04-03T14:32:59.540Z,99887.31
2023-04-03T14:35:28.171Z,99894.09
2023-04-03T14:37:59.859Z,99892.22
2023-04-03T14:40:29.168Z,99895.06
2023-04-03T14:42:58.724Z,99892.47
2023-04-03T14:45:27.890Z,99895.69
2023-04-03T14:47:58.109Z,99891.97
2023-04-03T14:50:28.092Z,99902.44
2023-04-03T14:52:59.186Z,99898.06
2023-04-03T14:55:29.056Z,99894.53
2023-04-03T14:57:57.148Z,99907.88
2023-04-03T15:00:33.768Z,99913.56
2023-04-03T15:03:25.167Z,99921.28
2023-04-03T15:05:54.333Z,99918.88
2023-04-03T15:08:25.409Z,99934.66
2023-04-03T15:10:54.662Z,99931.09
2023-04-03T15:13:25.168Z,99942.31
2023-04-03T15:15:53.496Z,99938.91
2023-04-03T15:18:24.164Z,99937.34
2023-04-03T15:20:52.298Z,99941.88
2023-04-03T15:23:21.303Z,99952.38
2023-04-03T15:25:51.844Z,99953.53
2023-04-03T15:28:29.544Z,99962.16
2023-04-03T15:30:58.159Z,99953.38
2023-04-03T15:33:27.722Z,99967.97
2023-04-03T15:36:02.954Z,99968.25
2023-04-03T15:38:40.439Z,99975.91
2023-04-03T15:41:08.985Z,99971.09
2023-04-03T15:43:37.147Z,99974.31
2023-04-03T15:46:09.288Z,99974.47
2023-04-03T15:48:38.199Z,99983.38
2023-04-03T15:51:09.706Z,99980.38
2023-04-03T15:53:41.093Z,99987.28
2023-04-03T15:56:11.099Z,99992.22
2023-04-03T15:58:40.292Z,99998.16
2023-04-03T16:01:10.310Z,99995.13
2023-04-03T16:03:45.251Z,100003.47
2023-04-03T16:06:17.360Z,100007.13
2023-04-03T16:08:46.510Z,100010.91
2023-04-03T16:11:16.387Z,100014.75
2023-04-03T16:13:47.950Z,100023.53
2023-04-03T16:16:16.630Z,100021.81
2023-04-03T16:18:49.583Z,100020.72
2023-04-03T16:21:22.425Z,100020.84
2023-04-03T16:23:52.464Z,100032.84
2023-04-03T16:26:25.223Z,100024.19
2023-04-03T16:28:54.991Z,100041.47
2023-04-03T16:31:24.753Z,100036.34
2023-04-03T16:33:53.839Z,100047.97
2023-04-03T16:36:22.235Z,100044.56
2023-04-03T16:38:51.154Z,100049.34
2023-04-03T16:41:19.431Z,100056.56
2023-04-03T16:43:47.329Z,100065.91
2023-04-03T16:46:15.800Z,100065.56
2023-04-03T16:48:43.801Z,100073.75
2023-04-03T16:51:16.427Z,100075.00
2023-04-03T16:53:45.079Z,100078.94
2023-04-03T16:56:16.568Z,100081.88
2023-04-03T16:58:50.133Z,100089.63
2023-04-03T17:01:23.913Z,100093.41
2023-04-03T17:03:55.949Z,100099.03
2023-04-03T17:06:25.563Z,100104.31
2023-04-03T17:08:55.222Z,100110.56
2023-04-03T17:11:24.578Z,100114.47
2023-04-03T17:13:55.777Z,100114.47
2023-04-03T17:16:24.162Z,100112.63
2023-04-03T17:18:54.686Z,100113.88
2023-04-03T17:21:28.042Z,100128.56
2023-04-03T17:24:02.643Z,100124.16
2023-04-03T17:26:34.169Z,100126.00
2023-04-03T17:29:02.222Z,100126.00
2023-04-03T17:31:31.111Z,100131.63
2023-04-03T17:34:02.354Z,100143.94
2023-04-03T17:36:35.882Z,100138.69
2023-04-03T17:39:06.805Z,100151.31
2023-04-03T17:41:35.867Z,100157.91
2023-04-03T17:44:07.489Z,100147.53
2023-04-03T17:46:38.196Z,100150.22
2023-04-03T17:49:06.451Z,100153.91
2023-04-03T17:51:34.782Z,100154.63
2023-04-03T17:54:05.761Z,100164.38
2023-04-03T17:56:34.192Z,100165.97
2023-04-03T17:59:03.049Z,100165.22
2023-04-03T18:01:35.115Z,100163.66
2023-04-03T18:04:08.032Z,100167.22
2023-04-03T18:06:44.362Z,100175.28
2023-04-03T18:09:19.326Z,100172.44
2023-04-03T18:11:53.330Z,100179.56
2023-04-03T18:14:26.367Z,100182.50
2023-04-03T18:16:57.987Z,100184.06
2023-04-03T18:19:29.771Z,100182.34
2023-04-03T18:22:05.501Z,100186.75
2023-04-03T18:24:36.695Z,100190.78
2023-04-03T18:27:16.110Z,100204.00
2023-04-03T18:29:48.129Z,100197.03
2023-04-03T18:32:20.034Z,100203.16
2023-04-03T18:34:48.389Z,100200.56
2023-04-03T18:37:21.437Z,100203.38
2023-04-03T18:39:50.196Z,100195.56
2023-04-03T18:42:24.251Z,100196.06
2023-04-03T18:44:57.939Z,100200.69
2023-04-03T18:47:31.148Z,100211.81
2023-04-03T18:50:02.241Z,100212.09
2023-04-03T18:52:31.206Z,100206.44
2023-04-03T18:55:28.750Z,100223.69
2023-04-03T18:58:01.723Z,100225.41
2023-04-03T19:00:34.102Z,100228.09
2023-04-03T19:03:19.126Z,100233.94
2023-04-03T19:05:47.628Z,100234.69
2023-04-03T19:08:16.258Z,100240.91
2023-04-03T19:10:44.622Z,100240.28
2023-04-03T19:13:12.914Z,100246.41
2023-04-03T19:15:42.584Z,100248.97
2023-04-03T19:18:10.992Z,100233.69
2023-04-03T19:20:48.191Z,100244.34
2023-04-03T19:23:17.861Z,100247.03
2023-04-03T19:25:46.328Z,100247.63
2023-04-03T19:28:14.962Z,100245.31
2023-04-03T19:30:44.010Z,100243.59
2023-04-03T19:33:14.806Z,100248.84
2023-04-03T19:35:43.384Z,100247.03
2023-04-03T19:38:13.937Z,100248.84
2023-04-03T19:40:46.089Z,100240.91
2023-04-03T19:43:15.586Z,100255.19
2023-04-03T19:45:44.684Z,100258.88
2023-04-03T19:48:16.685Z,100252.88
2023-04-03T19:50:46.230Z,100259.09
2023-04-03T19:53:19.172Z,100253.38
2023-04-03T19:55:50.649Z,100257.63
2023-04-03T19:58:18.872Z,100261.06
2023-04-03T20:00:47.143Z,100262.28
2023-04-03T20:03:16.553Z,100271.84
2023-04-03T20:05:46.844Z,100268.75
2023-04-03T20:08:19.949Z,100271.34
2023-04-03T20:10:51.447Z,100266.06
2023-04-03T20:13:23.047Z,100264.22
2023-04-03T20:15:52.871Z,100261.53
2023-04-03T20:18:22.562Z,100260.47
2023-04-03T20:21:01.459Z,100264.97
2023-04-03T20:23:30.482Z,100272.66
2023-04-03T20:26:10.890Z,100268.41
2023-04-03T20:28:43.993Z,100273.78
2023-04-03T20:31:18.357Z,100265.81
2023-04-03T20:33:49.077Z,100274.00
2023-04-03T20:36:18.407Z,100286.69
2023-04-03T20:38:48.305Z,100289.81
2023-04-03T20:41:20.346Z,100284.75
2023-04-03T20:43:52.223Z,100282.91
2023-04-03T20:46:21.259Z,100283.63
2023-04-03T20:48:49.662Z,100286.22
2023-04-03T20:51:22.736Z,100290.63
2023-04-03T20:53:53.921Z,100285.09
2023-04-03T20:56:22.600Z,100286.31
2023-04-03T20:58:58.433Z,100293.53
2023-04-03T21:01:27.502Z,100290.34
2023-04-03T21:04:06.211Z,100295.00
2023-04-03T21:07:12.851Z,100294.75
2023-04-03T21:10:19.110Z,100294.13
2023-04-03T21:13:27.167Z,100298.88
2023-04-03T21:15:56.110Z,100287.38
2023-04-03T21:19:06.530Z,100288.13
2023-04-03T21:21:36.816Z,100292.25
2023-04-03T21:24:07.219Z,100293.09
2023-04-03T21:26:38.939Z,100299.56
2023-04-03T21:29:11.283Z,100295.78
2023-04-03T21:31:54.054Z,100311.03
2023-04-03T21:34:26.354Z,100319.09
2023-04-03T21:37:13.221Z,100313.59
2023-04-03T21:39:46.024Z,100327.16
2023-04-03T21:42:14.490Z,100328.78
2023-04-03T21:44:42.592Z,100322.66
2023-04-03T21:47:12.110Z,100330.34
2023-04-03T21:49:40.669Z,100330.59
2023-04-03T21:52:35.345Z,100332.31
2023-04-03T21:55:04.246Z,100342.22
2023-04-03T21:57:37.108Z,100334.88
2023-04-03T22:00:11.250Z,100339.41
2023-04-03T22:03:09.934Z,100338.53
2023-04-03T22:05:40.180Z,100339.75
2023-04-03T22:08:09.929Z,100339.75
2023-04-03T22:10:41.712Z,100339.88
2023-04-03T22:13:10.897Z,100346.56
2023-04-03T22:15:47.974Z,100338.41
2023-04-03T22:18:18.505Z,100348.16
2023-04-03T22:20:47.344Z,100342.78
2023-04-03T22:23:15.868Z,100342.03
2023-04-03T22:25:44.320Z,100342.66
2023-04-03T22:28:13.980Z,100341.09
2023-04-03T22:30:43.940Z,100339.25
2023-04-03T22:33:12.517Z,100335.81
2023-04-03T22:35:51.314Z,100336.91
2023-04-03T22:38:20.337Z,100338.97
2023-04-03T22:41:01.601Z,100347.88
2023-04-03T22:43:31.809Z,100348.56
2023-04-03T22:46:03.025Z,100348.38
2023-04-03T22:48:34.402Z,100354.72
2023-04-03T22:51:07.790Z,100358.53
2023-04-03T22:53:36.288Z,100353.88
2023-04-03T22:56:11.782Z,100360.56
2023-04-03T22:58:41.100Z,100361.44
2023-04-03T23:01:13.991Z,100367.00
2023-04-03T23:03:43.581Z,100371.41
2023-04-03T23:06:14.576Z,100373.03
2023-04-03T23:08:46.163Z,100368.50
2023-04-03T23:11:14.916Z,100367.66
2023-04-03T23:13:45.496Z,100370.00
2023-04-03T23:16:14.002Z,100366.22
2023-04-03T23:18:44.060Z,100367.81
2023-04-03T23:21:17.788Z,100366.09
2023-04-03T23:23:46.716Z,100369.78
2023-04-03T23:26:16.092Z,100366.31
2023-04-03T23:28:45.265Z,100376.22
2023-04-03T23:31:15.886Z,100376.09
2023-04-03T23:33:44.855Z,100383.19
2023-04-03T23:36:14.022Z,100387.59
2023-04-03T23:38:43.460Z,100392.97
2023-04-03T23:41:15.278Z,100391.34
2023-04-03T23:43:43.673Z,100393.31
2023-04-03T23:46:12.433Z,100392.66
2023-04-03T23:48:41.085Z,100392.44
2023-04-03T23:51:11.084Z,100388.06
2023-04-03T23:53:41.382Z,100389.00
2023-04-03T23:56:13.491Z,100387.28
2023-04-03T23:58:43.551Z,100381.19
